createdAt,value
2023-12-14T00:01:55.766Z,95807.69
2023-12-14T00:04:22.661Z,95802.47
2023-12-14T00:06:49.634Z,95808.53
2023-12-14T00:09:16.745Z,95811.97
2023-12-14T00:11:43.702Z,95812.06
2023-12-14T00:14:10.938Z,95824.47
2023-12-14T00:16:37.702Z,95822.63
2023-12-14T00:19:04.639Z,95827.53
2023-12-14T00:21:31.979Z,95830.59
2023-12-14T00:23:58.730Z,95834.75
2023-12-14T00:26:25.550Z,95839.63
2023-12-14T00:29:00.392Z,95835.03
2023-12-14T00:31:28.282Z,95839.91
2023-12-14T00:33:55.324Z,95845.56
2023-12-14T00:36:22.179Z,95855.72
2023-12-14T00:38:48.918Z,95846.59
2023-12-14T00:41:15.902Z,95848.47
2023-12-14T00:43:42.981Z,95853.00
2023-12-14T00:46:10.433Z,95857.53
2023-12-14T00:48:37.406Z,95862.81
2023-12-14T00:51:04.168Z,95863.22
2023-12-14T00:53:30.865Z,95868.50
2023-12-14T00:55:57.556Z,95873.78
2023-12-14T00:58:24.429Z,95876.41
2023-12-14T01:00:51.302Z,95878.31
2023-12-14T01:03:18.273Z,95888.47
2023-12-14T01:05:45.075Z,95886.59
2023-12-14T01:08:12.038Z,95892.22
2023-12-14T01:10:39.085Z,95887.69
2023-12-14T01:13:05.758Z,95892.63
2023-12-14T01:15:32.560Z,95888.88
2023-12-14T01:17:59.411Z,95902.50
2023-12-14T01:20:26.110Z,95898.75
2023-12-14T01:22:53.029Z,95907.84
2023-12-14T01:25:19.767Z,95914.66
2023-12-14T01:27:46.567Z,95916.94
2023-12-14T01:30:13.689Z,95921.88
2023-12-14T01:32:40.452Z,95919.69
2023-12-14T01:35:07.672Z,95927.34
2023-12-14T01:37:34.837Z,95928.19
2023-12-14T01:40:01.766Z,95931.59
2023-12-14T01:42:28.842Z,95930.06
2023-12-14T01:44:55.619Z,95935.69
2023-12-14T01:47:22.601Z,95942.09
2023-12-14T01:49:49.319Z,95945.84
2023-12-14T01:52:16.032Z,95944.72
2023-12-14T01:54:42.754Z,95953.06
2023-12-14T01:57:09.509Z,95947.44
2023-12-14T01:59:36.310Z,95958.41
2023-12-14T02:02:04.138Z,95959.19
2023-12-14T02:04:31.781Z,95965.63
2023-12-14T02:06:58.634Z,95965.34
2023-12-14T02:09:26.189Z,95977.06
2023-12-14T02:11:53.142Z,95988.06
2023-12-14T02:14:22.931Z,95989.22
2023-12-14T02:16:49.744Z,95989.22
2023-12-14T02:19:16.571Z,95986.94
2023-12-14T02:21:43.429Z,95993.69
2023-12-14T02:24:10.266Z,95991.31
2023-12-14T02:26:37.021Z,95994.31
2023-12-14T02:29:03.778Z,95993.81
2023-12-14T02:31:30.640Z,95990.72
2023-12-14T02:33:57.718Z,95994.03
2023-12-14T02:36:24.409Z,95997.78
2023-12-14T02:38:51.258Z,96003.78
2023-12-14T02:41:18.011Z,96003.78
2023-12-14T02:43:44.725Z,96003.44
2023-12-14T02:46:13.223Z,96009.53
2023-12-14T02:48:42.596Z,96011.09
2023-12-14T02:51:13.818Z,96012.94
2023-12-14T02:53:40.579Z,96012.53
2023-12-14T02:56:07.889Z,96017.03
2023-12-14T02:58:34.769Z,96016.28
2023-12-14T03:01:01.533Z,96016.22
2023-12-14T03:03:28.321Z,96026.44
2023-12-14T03:05:56.303Z,96026.81
2023-12-14T03:08:23.082Z,96028.31
2023-12-14T03:10:49.851Z,96030.19
2023-12-14T03:13:16.921Z,96024.56
2023-12-14T03:15:44.318Z,96034.44
2023-12-14T03:18:13.211Z,96034.06
2023-12-14T03:20:40.114Z,96048.47
2023-12-14T03:23:06.826Z,96046.25
2023-12-14T03:25:33.580Z,96050.41
2023-12-14T03:28:00.300Z,96055.69
2023-12-14T03:30:28.319Z,96051.94
2023-12-14T03:32:55.509Z,96056.97
2023-12-14T03:35:22.345Z,96058.47
2023-12-14T03:37:49.113Z,96061.25
2023-12-14T03:40:16.219Z,96066.84
2023-12-14T03:42:43.073Z,96068.25
2023-12-14T03:45:10.168Z,96065.16
2023-12-14T03:47:37.215Z,96075.72
2023-12-14T03:50:04.460Z,96072.66
2023-12-14T03:52:32.859Z,96082.06
2023-12-14T03:54:59.873Z,96078.22
2023-12-14T03:57:26.662Z,96082.41
2023-12-14T03:59:53.965Z,96084.63
2023-12-14T04:02:20.693Z,96089.91
2023-12-14T04:04:48.408Z,96107.28
2023-12-14T04:07:15.561Z,96109.59
2023-12-14T04:09:42.502Z,96112.56
2023-12-14T04:12:09.194Z,96113.28
2023-12-14T04:14:35.973Z,96122.31
2023-12-14T04:17:02.755Z,96123.78
2023-12-14T04:19:29.557Z,96129.38
2023-12-14T04:21:56.760Z,96130.50
2023-12-14T04:24:23.435Z,96142.41
2023-12-14T04:26:50.243Z,96146.25
2023-12-14T04:29:17.590Z,96145.13
2023-12-14T04:31:44.268Z,96149.38
2023-12-14T04:34:15.579Z,96145.97
2023-12-14T04:36:46.718Z,96142.91
2023-12-14T04:39:13.440Z,96148.19
2023-12-14T04:41:40.119Z,96157.22
2023-12-14T04:44:06.881Z,96162.50
2023-12-14T04:46:33.627Z,96167.38
2023-12-14T04:49:00.361Z,96174.19
2023-12-14T04:51:27.389Z,96180.59
2023-12-14T04:53:54.156Z,96185.13
2023-12-14T04:56:21.060Z,96188.53
2023-12-14T04:58:47.674Z,96192.69
2023-12-14T05:01:14.419Z,96192.34
2023-12-14T05:03:41.552Z,96202.25
2023-12-14T05:06:08.604Z,96211.41
2023-12-14T05:08:35.454Z,96214.94
2023-12-14T05:11:02.222Z,96216.53
2023-12-14T05:13:29.059Z,96225.66
2023-12-14T05:15:56.109Z,96223.44
2023-12-14T05:18:41.706Z,96227.97
2023-12-14T05:21:08.442Z,96234.78
2023-12-14T05:23:35.149Z,96232.47
2023-12-14T05:26:02.008Z,96230.25
2023-12-14T05:28:29.222Z,96235.53
2023-12-14T05:30:56.060Z,96246.88
2023-12-14T05:33:23.018Z,96245.75
2023-12-14T05:35:49.724Z,96257.44
2023-12-14T05:38:16.485Z,96260.53
2023-12-14T05:40:43.836Z,96261.63
2023-12-14T05:43:11.588Z,96268.78
2023-12-14T05:45:38.405Z,96272.97
2023-12-14T05:48:06.766Z,96279.38
2023-12-14T05:50:33.569Z,96277.00
2023-12-14T05:53:00.303Z,96287.13
2023-12-14T05:55:27.021Z,96294.31
2023-12-14T05:57:53.725Z,96300.28
2023-12-14T06:00:20.615Z,96302.16
2023-12-14T06:02:47.392Z,96305.16
2023-12-14T06:05:14.785Z,96310.75
2023-12-14T06:07:41.860Z,96308.44
2023-12-14T06:10:09.049Z,96313.72
2023-12-14T06:12:36.095Z,96322.88
2023-12-14T06:15:03.679Z,96319.78
2023-12-14T06:17:31.511Z,96326.94
2023-12-14T06:19:58.576Z,96338.28
2023-12-14T06:22:25.396Z,96337.09
2023-12-14T06:24:52.249Z,96342.31
2023-12-14T06:27:19.061Z,96353.88
2023-12-14T06:29:46.546Z,96362.91
2023-12-14T06:32:13.320Z,96367.34
2023-12-14T06:34:40.622Z,96369.56
2023-12-14T06:37:07.350Z,96372.97
2023-12-14T06:39:34.398Z,96374.84
2023-12-14T06:42:00.931Z,96383.47
2023-12-14T06:44:29.205Z,96386.88
2023-12-14T06:46:56.654Z,96393.16
2023-12-14T06:49:23.526Z,96398.88
2023-12-14T06:51:50.338Z,96394.34
2023-12-14T06:54:17.170Z,96395.47
2023-12-14T06:56:44.158Z,96398.88
2023-12-14T06:59:10.888Z,96401.50
2023-12-14T07:01:37.623Z,96402.63
2023-12-14T07:04:05.116Z,96404.50
2023-12-14T07:06:32.296Z,96413.53
2023-12-14T07:08:59.001Z,96420.34
2023-12-14T07:11:25.785Z,96420.34
2023-12-14T07:13:52.502Z,96426.06
2023-12-14T07:16:19.360Z,96435.84
2023-12-14T07:18:46.307Z,96438.59
2023-12-14T07:21:12.929Z,96440.47
2023-12-14T07:23:40.266Z,96450.69
2023-12-14T07:26:08.317Z,96450.34
2023-12-14T07:28:36.012Z,96451.47
2023-12-14T07:31:03.247Z,96461.69
2023-12-14T07:33:30.178Z,96469.28
2023-12-14T07:35:57.009Z,96468.63
2023-12-14T07:38:23.831Z,96479.19
2023-12-14T07:40:51.512Z,96476.91
2023-12-14T07:43:18.320Z,96486.69
2023-12-14T07:45:45.424Z,96493.50
2023-12-14T07:48:12.283Z,96488.22
2023-12-14T07:50:39.421Z,96490.88
2023-12-14T07:53:06.590Z,96495.03
2023-12-14T07:55:33.390Z,96499.22
2023-12-14T07:58:00.241Z,96510.56
2023-12-14T08:00:27.036Z,96518.56
2023-12-14T08:02:54.103Z,96521.66
2023-12-14T08:05:20.876Z,96524.06
2023-12-14T08:07:48.597Z,96526.50
2023-12-14T08:10:15.424Z,96533.84
2023-12-14T08:12:42.136Z,96533.59
2023-12-14T08:15:09.575Z,96541.63
2023-12-14T08:17:36.632Z,96548.53
2023-12-14T08:20:05.863Z,96556.47
2023-12-14T08:22:33.208Z,96554.59
2023-12-14T08:25:00.090Z,96557.59
2023-12-14T08:27:27.332Z,96568.16
2023-12-14T08:29:54.072Z,96575.75
2023-12-14T08:32:21.096Z,96579.59
2023-12-14T08:34:48.630Z,96579.25
2023-12-14T08:37:15.572Z,96587.94
2023-12-14T08:39:43.611Z,96594.75
2023-12-14T08:42:12.973Z,96608.78
2023-12-14T08:44:41.401Z,96609.97
2023-12-14T08:47:10.354Z,96607.00
2023-12-14T08:49:37.270Z,96612.28
2023-12-14T08:52:05.532Z,96629.34
2023-12-14T08:54:32.295Z,96632.66
2023-12-14T08:56:59.702Z,96639.84
2023-12-14T08:59:26.572Z,96639.84
2023-12-14T09:01:54.250Z,96647.78
2023-12-14T09:04:22.292Z,96653.06
2023-12-14T09:06:49.298Z,96658.78
2023-12-14T09:09:16.116Z,96655.03
2023-12-14T09:11:42.915Z,96658.88
2023-12-14T09:14:09.723Z,96666.56
2023-12-14T09:16:36.720Z,96665.91
2023-12-14T09:19:03.651Z,96666.69
2023-12-14T09:21:37.908Z,96670.84
2023-12-14T09:24:13.522Z,96670.31
2023-12-14T09:26:41.074Z,96678.25
2023-12-14T09:29:08.406Z,96694.22
2023-12-14T09:31:36.595Z,96690.06
2023-12-14T09:34:03.721Z,96697.53
2023-12-14T09:36:30.754Z,96703.50
2023-12-14T09:38:57.505Z,96706.81
2023-12-14T09:41:24.291Z,96712.00
2023-12-14T09:43:51.498Z,96711.25
2023-12-14T09:46:19.017Z,96710.47
2023-12-14T09:48:48.653Z,96719.50
2023-12-14T09:51:17.246Z,96726.22
2023-12-14T09:53:44.419Z,96718.97
2023-12-14T09:56:11.163Z,96729.22
2023-12-14T09:58:38.129Z,96722.72
2023-12-14T10:01:21.646Z,96735.25
2023-12-14T10:03:48.569Z,96736.81
2023-12-14T10:06:15.550Z,96725.91
2023-12-14T10:08:54.583Z,96730.88
2023-12-14T10:11:21.342Z,96738.78
2023-12-14T10:13:48.132Z,96738.03
2023-12-14T10:16:28.051Z,96743.06
2023-12-14T10:18:54.913Z,96740.97
2023-12-14T10:21:22.431Z,96743.38
2023-12-14T10:23:49.595Z,96748.34
2023-12-14T10:26:16.601Z,96756.28
2023-12-14T10:28:44.199Z,96751.75
2023-12-14T10:31:11.689Z,96763.09
2023-12-14T10:33:39.466Z,96758.56
2023-12-14T10:36:06.518Z,96762.75
2023-12-14T10:38:33.294Z,96767.75
2023-12-14T10:41:00.593Z,96769.38
2023-12-14T10:45:58.225Z,96773.53
2023-12-14T10:48:25.963Z,96768.59
2023-12-14T10:50:54.772Z,96771.16
2023-12-14T10:53:21.809Z,96773.03
2023-12-14T10:55:49.202Z,96784.47
2023-12-14T10:58:16.177Z,96792.94
2023-12-14T11:00:43.824Z,96802.84
2023-12-14T11:03:14.920Z,96802.84
2023-12-14T11:05:41.977Z,96802.50
2023-12-14T11:08:13.309Z,96808.56
2023-12-14T11:10:53.689Z,96811.69
2023-12-14T11:13:22.313Z,96811.34
2023-12-14T11:15:51.882Z,96812.09
2023-12-14T11:18:23.360Z,96817.06
2023-12-14T11:20:58.740Z,96816.28
2023-12-14T11:23:26.147Z,96830.84
2023-12-14T11:25:58.105Z,96832.22
2023-12-14T11:28:31.962Z,96822.50
2023-12-14T11:30:59.593Z,96829.34
2023-12-14T11:33:28.763Z,96835.06
2023-12-14T11:35:56.581Z,96830.22
2023-12-14T11:38:24.960Z,96834.84
2023-12-14T11:40:52.428Z,96830.75
2023-12-14T11:43:22.386Z,96834.25
2023-12-14T11:45:50.748Z,96837.03
2023-12-14T11:48:18.172Z,96836.34
2023-12-14T11:50:45.781Z,96847.41
2023-12-14T11:53:13.678Z,96848.94
2023-12-14T11:55:44.918Z,96851.25
2023-12-14T11:58:16.687Z,96856.97
2023-12-14T12:00:44.024Z,96855.50
2023-12-14T12:03:20.929Z,96851.00
2023-12-14T12:05:50.701Z,96854.84
2023-12-14T12:08:21.065Z,96854.19
2023-12-14T12:10:49.740Z,96856.47
2023-12-14T12:13:19.137Z,96863.00
2023-12-14T12:15:47.306Z,96858.56
2023-12-14T12:18:16.521Z,96858.56
2023-12-14T12:20:43.695Z,96855.91
2023-12-14T12:23:10.827Z,96862.75
2023-12-14T12:25:38.099Z,96864.31
2023-12-14T12:28:05.661Z,96866.84
2023-12-14T12:30:33.146Z,96874.78
2023-12-14T12:33:00.382Z,96869.50
2023-12-14T12:35:27.520Z,96872.56
2023-12-14T12:37:55.246Z,96875.69
2023-12-14T12:40:23.925Z,96881.75
2023-12-14T12:42:51.240Z,96886.28
2023-12-14T12:45:27.431Z,96883.94
2023-12-14T12:47:55.102Z,96877.44
2023-12-14T12:50:22.050Z,96886.91
2023-12-14T12:52:50.437Z,96890.00
2023-12-14T12:55:17.879Z,96884.81
2023-12-14T12:57:44.748Z,96886.34
2023-12-14T13:00:15.225Z,96892.97
2023-12-14T13:02:43.312Z,96897.41
2023-12-14T13:05:13.930Z,96901.50
2023-12-14T13:07:46.570Z,96907.13
2023-12-14T13:10:24.866Z,96905.94
2023-12-14T13:12:57.723Z,96908.22
2023-12-14T13:15:28.534Z,96905.38
2023-12-14T13:17:55.998Z,96912.63
2023-12-14T13:20:23.199Z,96910.41
2023-12-14T13:22:51.094Z,96918.91
2023-12-14T13:25:18.268Z,96926.19
2023-12-14T13:27:45.397Z,96922.75
2023-12-14T13:30:18.457Z,96930.69
2023-12-14T13:32:45.824Z,96929.50
2023-12-14T13:35:12.929Z,96929.41
2023-12-14T13:40:07.967Z,96944.41
2023-12-14T13:42:38.008Z,96935.47
2023-12-14T13:45:09.084Z,96941.53
2023-12-14T13:47:36.233Z,96942.19
2023-12-14T13:50:05.420Z,96947.72
2023-12-14T13:52:32.292Z,96957.00
2023-12-14T13:55:00.473Z,96960.63
2023-12-14T13:57:28.686Z,96967.03
2023-12-14T13:59:55.574Z,96960.97
2023-12-14T14:02:23.038Z,96974.19
2023-12-14T14:04:50.692Z,96964.28
2023-12-14T14:07:17.459Z,96974.53
2023-12-14T14:09:44.283Z,96979.81
2023-12-14T14:12:11.043Z,96989.63
2023-12-14T14:14:37.782Z,96994.25
2023-12-14T14:17:07.550Z,96995.03
2023-12-14T14:19:34.670Z,96998.44
2023-12-14T14:22:01.272Z,97003.31
2023-12-14T14:24:27.992Z,97003.66
2023-12-14T14:26:54.692Z,97016.78
2023-12-14T14:29:21.529Z,97014.78
2023-12-14T14:31:48.415Z,97010.78
2023-12-14T14:34:15.303Z,97015.66
2023-12-14T14:36:42.228Z,97017.88
2023-12-14T14:39:09.351Z,97024.56
2023-12-14T14:41:36.061Z,97032.84
2023-12-14T14:44:03.163Z,97042.66
2023-12-14T14:46:30.020Z,97038.81
2023-12-14T14:48:56.748Z,97050.81
2023-12-14T14:51:23.393Z,97048.81
2023-12-14T14:53:50.253Z,97055.09
2023-12-14T14:56:16.916Z,97061.03
2023-12-14T14:58:47.286Z,97062.56
2023-12-14T15:01:14.364Z,97071.28
2023-12-14T15:03:40.973Z,97074.69
2023-12-14T15:06:08.044Z,97082.63
2023-12-14T15:08:34.649Z,97091.66
2023-12-14T15:11:01.648Z,97094.31
2023-12-14T15:13:30.311Z,97101.81
2023-12-14T15:15:57.271Z,97108.22
2023-12-14T15:18:24.158Z,97108.97
2023-12-14T15:20:52.800Z,97114.59
2023-12-14T15:23:20.450Z,97122.97
2023-12-14T15:25:47.343Z,97120.44
2023-12-14T15:28:14.158Z,97130.38
2023-12-14T15:30:40.926Z,97132.69
2023-12-14T15:33:10.020Z,97142.50
2023-12-14T15:35:37.510Z,97152.66
2023-12-14T15:38:04.278Z,97154.81
2023-12-14T15:40:30.944Z,97157.19
2023-12-14T15:42:57.863Z,97158.38
2023-12-14T15:45:24.381Z,97158.06
2023-12-14T15:47:51.909Z,97159.81
2023-12-14T15:50:18.987Z,97173.16
2023-12-14T15:52:45.995Z,97170.50
2023-12-14T15:55:12.709Z,97178.13
2023-12-14T15:57:40.772Z,97171.72
2023-12-14T16:00:08.026Z,97174.84
2023-12-14T16:02:35.655Z,97182.13
2023-12-14T16:05:02.962Z,97188.31
2023-12-14T16:07:30.150Z,97178.94
2023-12-14T16:09:56.798Z,97192.94
2023-12-14T16:12:23.582Z,97202.19
2023-12-14T16:14:50.279Z,97207.22
2023-12-14T16:17:18.969Z,97201.69
2023-12-14T16:19:49.290Z,97198.00
2023-12-14T16:22:18.144Z,97203.94
2023-12-14T16:24:44.846Z,97218.91
2023-12-14T16:27:11.850Z,97215.81
2023-12-14T16:29:38.474Z,97222.53
2023-12-14T16:32:05.981Z,97220.06
2023-12-14T16:34:33.179Z,97230.53
2023-12-14T16:37:01.488Z,97235.50
2023-12-14T16:39:31.014Z,97236.25
2023-12-14T16:41:57.886Z,97234.38
2023-12-14T16:44:27.686Z,97240.34
2023-12-14T16:46:54.586Z,97242.81
2023-12-14T16:49:21.246Z,97249.09
2023-12-14T16:51:48.077Z,97256.44
2023-12-14T16:54:14.757Z,97260.75
2023-12-14T16:56:44.507Z,97268.56
2023-12-14T16:59:14.503Z,97267.78
2023-12-14T17:01:43.034Z,97281.47
2023-12-14T17:04:10.028Z,97275.84
2023-12-14T17:06:36.727Z,97294.84
2023-12-14T17:09:04.057Z,97291.72
2023-12-14T17:11:30.834Z,97303.84
2023-12-14T17:13:57.649Z,97306.50
2023-12-14T17:16:24.570Z,97314.44
2023-12-14T17:18:52.007Z,97315.06
2023-12-14T17:21:26.318Z,97318.50
2023-12-14T17:23:54.640Z,97322.84
2023-12-14T17:26:24.695Z,97319.75
2023-12-14T17:28:55.269Z,97326.91
2023-12-14T17:31:23.633Z,97325.38
2023-12-14T17:33:51.048Z,97330.97
2023-12-14T17:36:18.031Z,97337.03
2023-12-14T17:38:44.767Z,97339.81
2023-12-14T17:41:16.532Z,97350.22
2023-12-14T17:43:44.411Z,97354.25
2023-12-14T17:46:15.807Z,97350.84
2023-12-14T17:48:42.907Z,97354.09
2023-12-14T17:51:09.793Z,97350.22
2023-12-14T17:53:37.726Z,97357.69
2023-12-14T17:56:05.075Z,97353.03
2023-12-14T17:58:31.898Z,97357.88
2023-12-14T18:01:04.026Z,97358.03
2023-12-14T18:03:33.439Z,97363.78
2023-12-14T18:06:02.685Z,97365.19
2023-12-14T18:08:30.424Z,97367.84
2023-12-14T18:10:58.137Z,97377.47
2023-12-14T18:13:26.887Z,97382.56
2023-12-14T18:15:53.962Z,97383.34
2023-12-14T18:18:20.916Z,97395.78
2023-12-14T18:20:47.581Z,97395.31
2023-12-14T18:23:14.369Z,97398.88
2023-12-14T18:25:41.210Z,97396.88
2023-12-14T18:28:08.061Z,97400.41
2023-12-14T18:30:35.110Z,97406.19
2023-12-14T18:33:02.157Z,97410.56
2023-12-14T18:35:28.923Z,97409.31
2023-12-14T18:37:57.716Z,97411.50
2023-12-14T18:40:26.399Z,97413.22
2023-12-14T18:42:53.760Z,97417.25
2023-12-14T18:45:20.758Z,97416.66
2023-12-14T18:47:48.035Z,97423.00
2023-12-14T18:50:15.217Z,97424.56
2023-12-14T18:52:42.291Z,97426.56
2023-12-14T18:55:10.323Z,97428.59
2023-12-14T18:57:37.327Z,97434.03
2023-12-14T19:00:04.736Z,97439.44
2023-12-14T19:02:32.497Z,97449.53
2023-12-14T19:04:59.857Z,97450.84
2023-12-14T19:07:26.774Z,97455.63
2023-12-14T19:09:55.057Z,97461.84
2023-12-14T19:12:21.969Z,97463.56
2023-12-14T19:14:49.395Z,97470.06
2023-12-14T19:17:16.235Z,97475.97
2023-12-14T19:19:43.248Z,97483.25
2023-12-14T19:22:09.913Z,97490.25
2023-12-14T19:24:36.766Z,97486.34
2023-12-14T19:27:04.265Z,97490.69
2023-12-14T19:29:31.469Z,97486.50
2023-12-14T19:31:58.452Z,97497.41
2023-12-14T19:34:25.297Z,97498.66
2023-12-14T19:36:52.085Z,97506.44
2023-12-14T19:39:20.339Z,97510.50
2023-12-14T19:41:48.424Z,97505.53
2023-12-14T19:44:17.244Z,97513.00
2023-12-14T19:46:44.442Z,97512.38
2023-12-14T19:49:11.179Z,97513.59
2023-12-14T19:51:41.082Z,97516.72
2023-12-14T19:54:09.208Z,97525.25
2023-12-14T19:56:36.169Z,97528.06
2023-12-14T19:59:03.579Z,97528.97
2023-12-14T20:01:34.228Z,97528.53
2023-12-14T20:04:02.074Z,97530.06
2023-12-14T20:06:29.608Z,97534.91
2023-12-14T20:08:57.366Z,97535.84
2023-12-14T20:11:24.334Z,97552.03
2023-12-14T20:13:51.400Z,97543.47
2023-12-14T20:16:18.010Z,97545.97
2023-12-14T20:18:45.133Z,97551.09
2023-12-14T20:21:12.114Z,97552.97
2023-12-14T20:23:39.419Z,97560.13
2023-12-14T20:26:06.391Z,97566.19
2023-12-14T20:28:33.092Z,97568.06
2023-12-14T20:31:00.001Z,97572.91
2023-12-14T20:33:26.907Z,97572.13
2023-12-14T20:35:55.004Z,97569.16
2023-12-14T20:38:22.236Z,97576.94
2023-12-14T20:40:49.068Z,97578.81
2023-12-14T20:43:16.764Z,97580.19
2023-12-14T20:45:43.620Z,97582.06
2023-12-14T20:48:10.512Z,97591.41
2023-12-14T20:50:38.232Z,97592.63
2023-12-14T20:53:05.073Z,97606.63
2023-12-14T20:55:31.925Z,97602.09
2023-12-14T20:57:58.827Z,97613.16
2023-12-14T21:00:25.725Z,97616.09
2023-12-14T21:02:52.569Z,97630.41
2023-12-14T21:05:20.784Z,97631.19
2023-12-14T21:07:48.976Z,97627.16
2023-12-14T21:10:16.094Z,97638.22
2023-12-14T21:12:43.469Z,97637.44
2023-12-14T21:15:10.825Z,97641.44
2023-12-14T21:17:38.410Z,97644.09
2023-12-14T21:20:06.484Z,97642.25
2023-12-14T21:22:34.091Z,97652.53
2023-12-14T21:25:04.814Z,97653.44
2023-12-14T21:27:50.496Z,97660.41
2023-12-14T21:30:20.549Z,97673.47
2023-12-14T21:32:49.118Z,97671.75
2023-12-14T21:35:16.783Z,97673.94
2023-12-14T21:37:44.043Z,97675.16
2023-12-14T21:40:11.362Z,97688.22
2023-12-14T21:42:39.304Z,97690.22
2023-12-14T21:45:06.589Z,97693.81
2023-12-14T21:47:35.519Z,97695.97
2023-12-14T21:50:02.769Z,97704.97
2023-12-14T21:52:29.842Z,97702.19
2023-12-14T21:54:56.486Z,97701.88
2023-12-14T21:57:23.488Z,97706.84
2023-12-14T21:59:50.524Z,97714.94
2023-12-14T22:02:17.998Z,97711.69
2023-12-14T22:04:45.307Z,97712.78
2023-12-14T22:07:12.025Z,97729.41
2023-12-14T22:09:38.927Z,97719.94
2023-12-14T22:12:05.950Z,97732.34
2023-12-14T22:14:32.888Z,97726.91
2023-12-14T22:17:01.627Z,97746.78
2023-12-14T22:19:28.970Z,97734.97
2023-12-14T22:21:55.614Z,97749.91
2023-12-14T22:24:22.361Z,97745.25
2023-12-14T22:26:49.544Z,97757.84
2023-12-14T22:29:16.287Z,97757.56
2023-12-14T22:31:43.506Z,97761.28
2023-12-14T22:34:12.011Z,97769.50
2023-12-14T22:36:39.103Z,97775.56
2023-12-14T22:39:05.969Z,97778.72
2023-12-14T22:41:32.734Z,97779.19
2023-12-14T22:43:59.412Z,97779.19
2023-12-14T22:46:26.085Z,97786.34
2023-12-14T22:48:52.927Z,97788.19
2023-12-14T22:51:20.554Z,97790.53
2023-12-14T22:53:47.510Z,97783.69
2023-12-14T22:56:25.176Z,97790.03
2023-12-14T22:58:52.941Z,97801.19
2023-12-14T23:01:35.799Z,97807.88
2023-12-14T23:04:04.175Z,97797.28
2023-12-14T23:06:32.833Z,97806.09
2023-12-14T23:09:00.453Z,97801.91
2023-12-14T23:11:27.305Z,97808.56
2023-12-14T23:13:54.123Z,97806.50
2023-12-14T23:16:21.240Z,97814.59
2023-12-14T23:18:48.041Z,97813.44
2023-12-14T23:21:14.803Z,97809.84
2023-12-14T23:23:41.422Z,97821.00
2023-12-14T23:26:08.079Z,97830.31
2023-12-14T23:28:34.700Z,97817.72
2023-12-14T23:31:02.242Z,97824.84
2023-12-14T23:33:30.185Z,97825.75
2023-12-14T23:35:57.007Z,97826.66
2023-12-14T23:38:23.963Z,97829.09
2023-12-14T23:40:51.220Z,97836.84
2023-12-14T23:43:18.575Z,97834.31
2023-12-14T23:45:45.673Z,97838.50
2023-12-14T23:48:12.498Z,97848.00
2023-12-14T23:50:39.159Z,97846.13
2023-12-14T23:53:05.875Z,97854.81
2023-12-14T23:55:32.666Z,97854.56
2023-12-14T23:57:59.401Z,97860.31
